sensor_id;sensor_type;location;lat;lon;timestamp;temperature;humidity
14378;DHT22;7272;53.668;9.578;2023-08-01T00:02:21;17.90;99.90
14378;DHT22;7272;53.668;9.578;2023-08-01T00:05:23;17.80;99.90
14378;DHT22;7272;53.668;9.578;2023-08-01T00:08:24;17.80;99.90
14378;DHT22;7272;53.668;9.578;2023-08-01T00:11:26;17.70;99.90
14378;DHT22;7272;53.668;9.578;2023-08-01T00:14:27;17.70;99.90
14378;DHT22;7272;53.668;9.578;2023-08-01T00:17:28;17.70;99.90
14378;DHT22;7272;53.668;9.578;2023-08-01T00:20:29;17.70;99.90
14378;DHT22;7272;53.668;9.578;2023-08-01T00:23:30;17.70;99.90
14378;DHT22;7272;53.668;9.578;2023-08-01T00:26:32;17.70;99.90
14378;DHT22;7272;53.668;9.578;2023-08-01T00:29:33;17.70;99.90
14378;DHT22;7272;53.668;9.578;2023-08-01T00:32:34;17.80;99.90
14378;DHT22;7272;53.668;9.578;2023-08-01T00:35:36;17.80;99.90
14378;DHT22;7272;53.668;9.578;2023-08-01T00:38:37;17.80;99.90
14378;DHT22;7272;53.668;9.578;2023-08-01T00:41:39;17.80;99.90
14378;DHT22;7272;53.668;9.578;2023-08-01T00:44:40;17.80;99.90
14378;DHT22;7272;53.668;9.578;2023-08-01T00:47:41;17.70;99.90
14378;DHT22;7272;53.668;9.578;2023-08-01T00:50:42;17.70;99.90
14378;DHT22;7272;53.668;9.578;2023-08-01T00:53:44;17.60;99.90
14378;DHT22;7272;53.668;9.578;2023-08-01T00:56:46;17.60;99.90
14378;DHT22;7272;53.668;9.578;2023-08-01T00:59:48;17.60;99.90
14378;DHT22;7272;53.668;9.578;2023-08-01T01:02:49;17.60;99.90
14378;DHT22;7272;53.668;9.578;2023-08-01T01:05:56;17.60;99.90
14378;DHT22;7272;53.668;9.578;2023-08-01T01:08:58;17.60;99.90
14378;DHT22;7272;53.668;9.578;2023-08-01T01:12:00;17.70;99.90
14378;DHT22;7272;53.668;9.578;2023-08-01T01:15:01;17.80;99.90
14378;DHT22;7272;53.668;9.578;2023-08-01T01:18:03;17.80;99.90
14378;DHT22;7272;53.668;9.578;2023-08-01T01:21:07;17.80;99.90
14378;DHT22;7272;53.668;9.578;2023-08-01T01:25:17;17.70;99.90
14378;DHT22;7272;53.668;9.578;2023-08-01T01:28:19;17.80;99.90
14378;DHT22;7272;53.668;9.578;2023-08-01T01:31:21;17.80;99.90
14378;DHT22;7272;53.668;9.578;2023-08-01T01:34:22;17.80;99.90
14378;DHT22;7272;53.668;9.578;2023-08-01T01:37:24;17.80;99.90
14378;DHT22;7272;53.668;9.578;2023-08-01T01:40:26;17.90;99.90
14378;DHT22;7272;53.668;9.578;2023-08-01T01:43:27;17.90;99.90
14378;DHT22;7272;53.668;9.578;2023-08-01T01:46:28;17.90;99.90
14378;DHT22;7272;53.668;9.578;2023-08-01T01:49:29;17.90;99.90
14378;DHT22;7272;53.668;9.578;2023-08-01T01:52:31;18.00;99.90
14378;DHT22;7272;53.668;9.578;2023-08-01T01:55:33;18.00;99.90
14378;DHT22;7272;53.668;9.578;2023-08-01T01:58:36;18.10;99.90
14378;DHT22;7272;53.668;9.578;2023-08-01T02:01:37;18.00;99.90
14378;DHT22;7272;53.668;9.578;2023-08-01T02:04:39;18.00;99.90
14378;DHT22;7272;53.668;9.578;2023-08-01T02:07:41;18.00;99.90
14378;DHT22;7272;53.668;9.578;2023-08-01T02:10:42;18.00;99.90
14378;DHT22;7272;53.668;9.578;2023-08-01T02:13:43;18.10;99.90
14378;DHT22;7272;53.668;9.578;2023-08-01T02:16:44;18.00;99.90
14378;DHT22;7272;53.668;9.578;2023-08-01T02:19:46;18.00;99.90
14378;DHT22;7272;53.668;9.578;2023-08-01T02:22:47;18.00;99.90
14378;DHT22;7272;53.668;9.578;2023-08-01T02:25:49;18.00;99.90
14378;DHT22;7272;53.668;9.578;2023-08-01T02:28:50;18.00;99.90
14378;DHT22;7272;53.668;9.578;2023-08-01T02:31:51;18.00;99.90
14378;DHT22;7272;53.668;9.578;2023-08-01T02:34:52;18.10;99.90
14378;DHT22;7272;53.668;9.578;2023-08-01T02:37:54;18.20;99.90
14378;DHT22;7272;53.668;9.578;2023-08-01T02:40:55;18.10;99.90
14378;DHT22;7272;53.668;9.578;2023-08-01T02:43:56;18.10;99.90
14378;DHT22;7272;53.668;9.578;2023-08-01T02:46:58;18.00;99.90
14378;DHT22;7272;53.668;9.578;2023-08-01T02:49:59;18.00;99.90
14378;DHT22;7272;53.668;9.578;2023-08-01T02:53:01;18.00;99.90
14378;DHT22;7272;53.668;9.578;2023-08-01T02:56:02;18.00;99.90
14378;DHT22;7272;53.668;9.578;2023-08-01T02:59:03;18.10;99.90
14378;DHT22;7272;53.668;9.578;2023-08-01T03:02:05;18.00;99.90
14378;DHT22;7272;53.668;9.578;2023-08-01T03:05:07;18.00;99.90
14378;DHT22;7272;53.668;9.578;2023-08-01T03:08:09;18.00;99.90
14378;DHT22;7272;53.668;9.578;2023-08-01T03:11:10;18.00;99.90
14378;DHT22;7272;53.668;9.578;2023-08-01T03:14:11;18.00;99.90
14378;DHT22;7272;53.668;9.578;2023-08-01T03:17:13;18.10;99.90
14378;DHT22;7272;53.668;9.578;2023-08-01T03:20:14;18.20;99.90
14378;DHT22;7272;53.668;9.578;2023-08-01T03:23:16;18.10;99.90
14378;DHT22;7272;53.668;9.578;2023-08-01T03:26:17;18.10;99.90
14378;DHT22;7272;53.668;9.578;2023-08-01T03:29:19;18.00;99.90
14378;DHT22;7272;53.668;9.578;2023-08-01T03:32:20;18.10;99.90
14378;DHT22;7272;53.668;9.578;2023-08-01T03:35:22;18.00;99.90
14378;DHT22;7272;53.668;9.578;2023-08-01T03:38:25;18.00;99.90
14378;DHT22;7272;53.668;9.578;2023-08-01T03:41:26;18.10;99.90
14378;DHT22;7272;53.668;9.578;2023-08-01T03:44:28;18.00;99.90
14378;DHT22;7272;53.668;9.578;2023-08-01T03:47:29;18.00;99.90
14378;DHT22;7272;53.668;9.578;2023-08-01T03:50:31;18.00;99.90
14378;DHT22;7272;53.668;9.578;2023-08-01T03:53:32;18.00;99.90
14378;DHT22;7272;53.668;9.578;2023-08-01T03:56:34;17.90;99.90
14378;DHT22;7272;53.668;9.578;2023-08-01T03:59:35;17.90;99.90
14378;DHT22;7272;53.668;9.578;2023-08-01T04:02:39;18.00;99.90
14378;DHT22;7272;53.668;9.578;2023-08-01T04:05:40;18.00;99.90
14378;DHT22;7272;53.668;9.578;2023-08-01T04:08:42;18.00;99.90
14378;DHT22;7272;53.668;9.578;2023-08-01T04:11:44;17.90;99.90
14378;DHT22;7272;53.668;9.578;2023-08-01T04:14:45;17.90;99.90
14378;DHT22;7272;53.668;9.578;2023-08-01T04:17:46;17.90;99.90
14378;DHT22;7272;53.668;9.578;2023-08-01T04:20:48;18.00;99.90
14378;DHT22;7272;53.668;9.578;2023-08-01T04:23:50;18.10;99.90
14378;DHT22;7272;53.668;9.578;2023-08-01T04:26:51;18.00;99.90
14378;DHT22;7272;53.668;9.578;2023-08-01T04:29:52;18.00;99.90
14378;DHT22;7272;53.668;9.578;2023-08-01T04:32:54;18.00;99.90
14378;DHT22;7272;53.668;9.578;2023-08-01T04:35:55;18.00;99.90
14378;DHT22;7272;53.668;9.578;2023-08-01T04:38:57;17.90;99.90
14378;DHT22;7272;53.668;9.578;2023-08-01T04:41:58;17.90;99.90
14378;DHT22;7272;53.668;9.578;2023-08-01T04:45:00;18.00;99.90
14378;DHT22;7272;53.668;9.578;2023-08-01T04:48:01;17.90;99.90
14378;DHT22;7272;53.668;9.578;2023-08-01T04:51:02;17.90;99.90
14378;DHT22;7272;53.668;9.578;2023-08-01T04:54:04;17.90;99.90
14378;DHT22;7272;53.668;9.578;2023-08-01T04:57:06;17.90;99.90
14378;DHT22;7272;53.668;9.578;2023-08-01T05:00:08;17.90;99.90
14378;DHT22;7272;53.668;9.578;2023-08-01T05:03:10;18.10;99.90
14378;DHT22;7272;53.668;9.578;2023-08-01T05:06:11;18.20;99.90
14378;DHT22;7272;53.668;9.578;2023-08-01T05:09:13;18.10;99.90
14378;DHT22;7272;53.668;9.578;2023-08-01T05:12:14;18.00;99.90
14378;DHT22;7272;53.668;9.578;2023-08-01T05:15:15;18.00;99.90
14378;DHT22;7272;53.668;9.578;2023-08-01T05:18:17;18.00;99.90
14378;DHT22;7272;53.668;9.578;2023-08-01T05:21:18;17.90;99.90
14378;DHT22;7272;53.668;9.578;2023-08-01T05:24:20;17.90;99.90
14378;DHT22;7272;53.668;9.578;2023-08-01T05:27:21;18.00;99.90
14378;DHT22;7272;53.668;9.578;2023-08-01T05:30:22;18.00;99.90
14378;DHT22;7272;53.668;9.578;2023-08-01T05:33:23;18.00;99.90
14378;DHT22;7272;53.668;9.578;2023-08-01T05:36:24;18.00;99.90
14378;DHT22;7272;53.668;9.578;2023-08-01T05:39:26;18.00;99.90
14378;DHT22;7272;53.668;9.578;2023-08-01T05:42:27;18.00;99.90
14378;DHT22;7272;53.668;9.578;2023-08-01T05:45:28;18.10;99.90
14378;DHT22;7272;53.668;9.578;2023-08-01T05:48:30;18.20;99.90
14378;DHT22;7272;53.668;9.578;2023-08-01T05:51:31;18.10;99.90
14378;DHT22;7272;53.668;9.578;2023-08-01T05:54:33;18.10;99.90
14378;DHT22;7272;53.668;9.578;2023-08-01T05:57:34;18.10;99.90
14378;DHT22;7272;53.668;9.578;2023-08-01T06:00:35;18.10;99.90
14378;DHT22;7272;53.668;9.578;2023-08-01T06:03:36;18.10;99.90
14378;DHT22;7272;53.668;9.578;2023-08-01T06:06:38;18.10;99.90
14378;DHT22;7272;53.668;9.578;2023-08-01T06:09:39;18.20;99.90
14378;DHT22;7272;53.668;9.578;2023-08-01T06:12:41;18.20;99.90
14378;DHT22;7272;53.668;9.578;2023-08-01T06:15:42;18.20;99.90
14378;DHT22;7272;53.668;9.578;2023-08-01T06:18:43;18.20;99.90
14378;DHT22;7272;53.668;9.578;2023-08-01T06:21:44;18.20;99.90
14378;DHT22;7272;53.668;9.578;2023-08-01T06:24:46;18.10;99.90
14378;DHT22;7272;53.668;9.578;2023-08-01T06:27:47;18.10;99.90
14378;DHT22;7272;53.668;9.578;2023-08-01T06:30:48;18.10;99.90
14378;DHT22;7272;53.668;9.578;2023-08-01T06:33:50;18.20;99.90
14378;DHT22;7272;53.668;9.578;2023-08-01T06:36:51;18.20;99.90
14378;DHT22;7272;53.668;9.578;2023-08-01T06:39:54;18.20;99.90
14378;DHT22;7272;53.668;9.578;2023-08-01T06:42:55;18.20;99.90
14378;DHT22;7272;53.668;9.578;2023-08-01T06:45:57;18.30;99.90
14378;DHT22;7272;53.668;9.578;2023-08-01T06:48:58;18.50;99.90
14378;DHT22;7272;53.668;9.578;2023-08-01T06:51:59;18.60;99.90
14378;DHT22;7272;53.668;9.578;2023-08-01T06:55:01;18.70;99.90
14378;DHT22;7272;53.668;9.578;2023-08-01T06:58:02;18.80;99.90
14378;DHT22;7272;53.668;9.578;2023-08-01T07:01:04;18.70;99.90
14378;DHT22;7272;53.668;9.578;2023-08-01T07:04:05;18.60;99.90
14378;DHT22;7272;53.668;9.578;2023-08-01T07:07:06;18.60;99.90
14378;DHT22;7272;53.668;9.578;2023-08-01T07:10:10;18.60;99.90
14378;DHT22;7272;53.668;9.578;2023-08-01T07:13:11;18.50;99.90
14378;DHT22;7272;53.668;9.578;2023-08-01T07:16:12;18.60;99.90
14378;DHT22;7272;53.668;9.578;2023-08-01T07:19:13;18.60;99.90
14378;DHT22;7272;53.668;9.578;2023-08-01T07:22:15;18.70;99.90
14378;DHT22;7272;53.668;9.578;2023-08-01T07:25:16;18.80;99.90
14378;DHT22;7272;53.668;9.578;2023-08-01T07:28:19;19.00;99.90
14378;DHT22;7272;53.668;9.578;2023-08-01T07:31:21;19.20;99.90
14378;DHT22;7272;53.668;9.578;2023-08-01T07:34:22;19.30;99.90
14378;DHT22;7272;53.668;9.578;2023-08-01T07:37:25;19.40;99.90
14378;DHT22;7272;53.668;9.578;2023-08-01T07:40:29;19.40;99.90
14378;DHT22;7272;53.668;9.578;2023-08-01T07:43:30;19.40;99.90
14378;DHT22;7272;53.668;9.578;2023-08-01T07:46:32;19.40;99.90
14378;DHT22;7272;53.668;9.578;2023-08-01T07:49:33;19.30;99.90
14378;DHT22;7272;53.668;9.578;2023-08-01T07:52:35;19.30;99.90
14378;DHT22;7272;53.668;9.578;2023-08-01T07:55:36;19.50;99.90
14378;DHT22;7272;53.668;9.578;2023-08-01T07:58:37;19.80;99.90
14378;DHT22;7272;53.668;9.578;2023-08-01T08:01:39;19.90;99.90
14378;DHT22;7272;53.668;9.578;2023-08-01T08:04:41;20.00;99.90
14378;DHT22;7272;53.668;9.578;2023-08-01T08:07:42;20.00;99.90
14378;DHT22;7272;53.668;9.578;2023-08-01T08:10:43;19.90;99.90
14378;DHT22;7272;53.668;9.578;2023-08-01T08:13:45;20.10;99.90
14378;DHT22;7272;53.668;9.578;2023-08-01T08:16:46;20.30;99.90
14378;DHT22;7272;53.668;9.578;2023-08-01T08:19:47;20.30;99.90
14378;DHT22;7272;53.668;9.578;2023-08-01T08:22:48;20.40;99.90
14378;DHT22;7272;53.668;9.578;2023-08-01T08:25:50;20.40;99.90
14378;DHT22;7272;53.668;9.578;2023-08-01T08:28:51;20.20;99.90
14378;DHT22;7272;53.668;9.578;2023-08-01T08:31:53;20.10;99.90
14378;DHT22;7272;53.668;9.578;2023-08-01T08:34:54;19.90;99.90
14378;DHT22;7272;53.668;9.578;2023-08-01T08:37:55;19.70;99.90
14378;DHT22;7272;53.668;9.578;2023-08-01T08:41:06;19.40;99.90
14378;DHT22;7272;53.668;9.578;2023-08-01T08:44:08;19.20;99.90
14378;DHT22;7272;53.668;9.578;2023-08-01T08:47:11;19.00;99.90
14378;DHT22;7272;53.668;9.578;2023-08-01T08:50:12;19.00;99.90
14378;DHT22;7272;53.668;9.578;2023-08-01T08:53:14;19.00;99.90
14378;DHT22;7272;53.668;9.578;2023-08-01T08:56:17;19.00;99.90
14378;DHT22;7272;53.668;9.578;2023-08-01T08:59:18;19.00;99.90
14378;DHT22;7272;53.668;9.578;2023-08-01T09:02:20;19.20;99.90
14378;DHT22;7272;53.668;9.578;2023-08-01T09:05:26;19.70;99.90
14378;DHT22;7272;53.668;9.578;2023-08-01T09:08:30;20.10;99.90
14378;DHT22;7272;53.668;9.578;2023-08-01T09:11:46;20.40;99.90
14378;DHT22;7272;53.668;9.578;2023-08-01T09:14:48;20.40;99.90
14378;DHT22;7272;53.668;9.578;2023-08-01T09:17:53;20.50;99.90
14378;DHT22;7272;53.668;9.578;2023-08-01T09:20:56;20.80;99.90
14378;DHT22;7272;53.668;9.578;2023-08-01T09:24:09;21.00;99.90
14378;DHT22;7272;53.668;9.578;2023-08-01T09:27:11;21.10;99.90
14378;DHT22;7272;53.668;9.578;2023-08-01T09:30:13;21.40;99.90
14378;DHT22;7272;53.668;9.578;2023-08-01T09:33:17;21.70;99.90
14378;DHT22;7272;53.668;9.578;2023-08-01T09:36:21;22.00;99.90
14378;DHT22;7272;53.668;9.578;2023-08-01T09:39:22;22.30;99.90
14378;DHT22;7272;53.668;9.578;2023-08-01T09:42:24;22.50;99.90
14378;DHT22;7272;53.668;9.578;2023-08-01T09:45:25;22.60;99.90
14378;DHT22;7272;53.668;9.578;2023-08-01T09:48:27;22.70;99.90
14378;DHT22;7272;53.668;9.578;2023-08-01T09:51:29;22.90;99.90
14378;DHT22;7272;53.668;9.578;2023-08-01T09:54:30;22.80;99.90
14378;DHT22;7272;53.668;9.578;2023-08-01T09:57:32;22.70;99.90
14378;DHT22;7272;53.668;9.578;2023-08-01T10:00:35;22.40;99.90
14378;DHT22;7272;53.668;9.578;2023-08-01T10:03:37;22.20;99.90
14378;DHT22;7272;53.668;9.578;2023-08-01T10:06:42;22.40;99.90
14378;DHT22;7272;53.668;9.578;2023-08-01T10:09:44;22.70;99.90
14378;DHT22;7272;53.668;9.578;2023-08-01T10:12:46;22.60;99.90
14378;DHT22;7272;53.668;9.578;2023-08-01T10:15:49;22.30;99.90
14378;DHT22;7272;53.668;9.578;2023-08-01T10:18:51;21.60;99.90
14378;DHT22;7272;53.668;9.578;2023-08-01T10:21:54;20.80;99.90
14378;DHT22;7272;53.668;9.578;2023-08-01T10:24:56;20.20;99.90
14378;DHT22;7272;53.668;9.578;2023-08-01T10:27:59;20.00;99.90
14378;DHT22;7272;53.668;9.578;2023-08-01T10:31:10;19.90;99.90
14378;DHT22;7272;53.668;9.578;2023-08-01T10:34:13;19.90;99.90
14378;DHT22;7272;53.668;9.578;2023-08-01T10:37:14;19.90;99.90
14378;DHT22;7272;53.668;9.578;2023-08-01T10:40:15;20.00;99.90
14378;DHT22;7272;53.668;9.578;2023-08-01T10:43:20;20.00;99.90
14378;DHT22;7272;53.668;9.578;2023-08-01T10:46:22;20.00;99.90
14378;DHT22;7272;53.668;9.578;2023-08-01T10:49:34;19.80;99.90
14378;DHT22;7272;53.668;9.578;2023-08-01T10:52:36;19.40;99.90
14378;DHT22;7272;53.668;9.578;2023-08-01T10:55:44;18.80;99.90
14378;DHT22;7272;53.668;9.578;2023-08-01T10:58:46;18.40;99.90
14378;DHT22;7272;53.668;9.578;2023-08-01T11:01:49;18.10;99.90
14378;DHT22;7272;53.668;9.578;2023-08-01T11:04:57;17.90;99.90
14378;DHT22;7272;53.668;9.578;2023-08-01T11:08:00;17.80;99.90
14378;DHT22;7272;53.668;9.578;2023-08-01T11:11:03;17.80;99.90
14378;DHT22;7272;53.668;9.578;2023-08-01T11:14:06;18.10;99.90
14378;DHT22;7272;53.668;9.578;2023-08-01T11:17:07;18.10;99.90
14378;DHT22;7272;53.668;9.578;2023-08-01T11:20:09;18.20;99.90
14378;DHT22;7272;53.668;9.578;2023-08-01T11:23:11;18.40;99.90
14378;DHT22;7272;53.668;9.578;2023-08-01T11:26:12;18.80;99.90
14378;DHT22;7272;53.668;9.578;2023-08-01T11:29:14;19.40;99.90
14378;DHT22;7272;53.668;9.578;2023-08-01T11:32:16;19.90;99.90
14378;DHT22;7272;53.668;9.578;2023-08-01T11:35:17;20.30;99.90
14378;DHT22;7272;53.668;9.578;2023-08-01T11:38:19;20.60;99.90
14378;DHT22;7272;53.668;9.578;2023-08-01T11:41:20;21.00;99.90
14378;DHT22;7272;53.668;9.578;2023-08-01T11:44:24;21.30;99.90
14378;DHT22;7272;53.668;9.578;2023-08-01T11:47:26;21.60;99.90
14378;DHT22;7272;53.668;9.578;2023-08-01T11:50:27;21.90;99.90
14378;DHT22;7272;53.668;9.578;2023-08-01T11:53:29;22.10;99.90
14378;DHT22;7272;53.668;9.578;2023-08-01T11:56:30;22.20;99.90
14378;DHT22;7272;53.668;9.578;2023-08-01T11:59:32;22.10;99.90
14378;DHT22;7272;53.668;9.578;2023-08-01T12:02:33;21.80;99.90
14378;DHT22;7272;53.668;9.578;2023-08-01T12:05:35;21.60;99.90
14378;DHT22;7272;53.668;9.578;2023-08-01T12:08:36;21.40;99.90
14378;DHT22;7272;53.668;9.578;2023-08-01T12:11:38;21.20;99.90
14378;DHT22;7272;53.668;9.578;2023-08-01T12:14:40;20.90;99.90
14378;DHT22;7272;53.668;9.578;2023-08-01T12:17:41;20.60;99.90
14378;DHT22;7272;53.668;9.578;2023-08-01T12:20:43;19.70;99.90
14378;DHT22;7272;53.668;9.578;2023-08-01T12:23:44;19.10;99.90
14378;DHT22;7272;53.668;9.578;2023-08-01T12:26:45;18.70;99.90
14378;DHT22;7272;53.668;9.578;2023-08-01T12:29:47;18.70;99.90
14378;DHT22;7272;53.668;9.578;2023-08-01T12:32:48;18.70;99.90
14378;DHT22;7272;53.668;9.578;2023-08-01T12:35:49;18.70;99.90
14378;DHT22;7272;53.668;9.578;2023-08-01T12:38:50;18.70;99.90
14378;DHT22;7272;53.668;9.578;2023-08-01T12:41:51;18.80;99.90
14378;DHT22;7272;53.668;9.578;2023-08-01T12:44:54;19.00;99.90
14378;DHT22;7272;53.668;9.578;2023-08-01T12:47:55;19.20;99.90
14378;DHT22;7272;53.668;9.578;2023-08-01T12:50:56;19.60;99.90
14378;DHT22;7272;53.668;9.578;2023-08-01T12:53:57;20.10;99.90
14378;DHT22;7272;53.668;9.578;2023-08-01T12:56:59;20.70;99.90
14378;DHT22;7272;53.668;9.578;2023-08-01T13:00:00;21.20;99.90
14378;DHT22;7272;53.668;9.578;2023-08-01T13:03:02;21.50;99.90
14378;DHT22;7272;53.668;9.578;2023-08-01T13:06:03;21.90;99.90
14378;DHT22;7272;53.668;9.578;2023-08-01T13:09:05;22.10;99.90
14378;DHT22;7272;53.668;9.578;2023-08-01T13:12:07;22.00;99.90
14378;DHT22;7272;53.668;9.578;2023-08-01T13:15:10;21.80;99.90
14378;DHT22;7272;53.668;9.578;2023-08-01T13:18:11;21.50;99.90
14378;DHT22;7272;53.668;9.578;2023-08-01T13:21:13;21.40;99.90
14378;DHT22;7272;53.668;9.578;2023-08-01T13:24:14;21.30;99.90
14378;DHT22;7272;53.668;9.578;2023-08-01T13:27:15;21.00;99.90
14378;DHT22;7272;53.668;9.578;2023-08-01T13:30:17;20.60;99.90
14378;DHT22;7272;53.668;9.578;2023-08-01T13:33:19;20.30;99.90
14378;DHT22;7272;53.668;9.578;2023-08-01T13:36:20;19.80;99.90
14378;DHT22;7272;53.668;9.578;2023-08-01T13:39:21;19.50;99.90
14378;DHT22;7272;53.668;9.578;2023-08-01T13:42:22;19.20;99.90
14378;DHT22;7272;53.668;9.578;2023-08-01T13:45:24;19.00;99.90
14378;DHT22;7272;53.668;9.578;2023-08-01T13:48:25;18.70;99.90
14378;DHT22;7272;53.668;9.578;2023-08-01T13:51:27;18.50;99.90
14378;DHT22;7272;53.668;9.578;2023-08-01T13:54:28;18.30;99.90
14378;DHT22;7272;53.668;9.578;2023-08-01T13:57:29;18.30;99.90
14378;DHT22;7272;53.668;9.578;2023-08-01T14:00:32;18.50;99.90
14378;DHT22;7272;53.668;9.578;2023-08-01T14:03:33;19.00;99.90
14378;DHT22;7272;53.668;9.578;2023-08-01T14:06:34;19.40;99.90
14378;DHT22;7272;53.668;9.578;2023-08-01T14:09:36;19.70;99.90
14378;DHT22;7272;53.668;9.578;2023-08-01T14:12:37;19.50;99.90
14378;DHT22;7272;53.668;9.578;2023-08-01T14:15:39;19.20;99.90
14378;DHT22;7272;53.668;9.578;2023-08-01T14:18:40;19.10;99.90
14378;DHT22;7272;53.668;9.578;2023-08-01T14:21:42;19.30;99.90
14378;DHT22;7272;53.668;9.578;2023-08-01T14:24:43;19.80;99.90
14378;DHT22;7272;53.668;9.578;2023-08-01T14:27:44;20.30;99.90
14378;DHT22;7272;53.668;9.578;2023-08-01T14:30:46;20.40;99.90
14378;DHT22;7272;53.668;9.578;2023-08-01T14:33:47;20.70;99.90
14378;DHT22;7272;53.668;9.578;2023-08-01T14:36:48;20.90;99.90
14378;DHT22;7272;53.668;9.578;2023-08-01T14:39:49;21.00;99.90
14378;DHT22;7272;53.668;9.578;2023-08-01T14:42:50;21.00;99.90
14378;DHT22;7272;53.668;9.578;2023-08-01T14:45:53;20.90;99.90
14378;DHT22;7272;53.668;9.578;2023-08-01T14:48:54;20.50;99.90
14378;DHT22;7272;53.668;9.578;2023-08-01T14:51:55;20.00;99.90
14378;DHT22;7272;53.668;9.578;2023-08-01T14:54:56;19.70;99.90
14378;DHT22;7272;53.668;9.578;2023-08-01T14:57:57;19.50;99.90
14378;DHT22;7272;53.668;9.578;2023-08-01T15:00:59;19.40;99.90
14378;DHT22;7272;53.668;9.578;2023-08-01T15:04:00;19.20;99.90
14378;DHT22;7272;53.668;9.578;2023-08-01T15:07:02;19.20;99.90
14378;DHT22;7272;53.668;9.578;2023-08-01T15:10:03;19.00;99.90
14378;DHT22;7272;53.668;9.578;2023-08-01T15:13:04;19.00;99.90
14378;DHT22;7272;53.668;9.578;2023-08-01T15:16:10;19.00;99.90
14378;DHT22;7272;53.668;9.578;2023-08-01T15:19:11;19.20;99.90
14378;DHT22;7272;53.668;9.578;2023-08-01T15:22:13;19.30;99.90
14378;DHT22;7272;53.668;9.578;2023-08-01T15:25:14;19.50;99.90
14378;DHT22;7272;53.668;9.578;2023-08-01T15:28:15;19.60;99.90
14378;DHT22;7272;53.668;9.578;2023-08-01T15:31:17;19.70;99.90
14378;DHT22;7272;53.668;9.578;2023-08-01T15:34:18;19.70;99.90
14378;DHT22;7272;53.668;9.578;2023-08-01T15:37:21;19.70;99.90
14378;DHT22;7272;53.668;9.578;2023-08-01T15:40:22;19.90;99.90
14378;DHT22;7272;53.668;9.578;2023-08-01T15:43:23;19.90;99.90
14378;DHT22;7272;53.668;9.578;2023-08-01T15:46:26;19.90;99.90
14378;DHT22;7272;53.668;9.578;2023-08-01T15:49:27;19.90;99.90
14378;DHT22;7272;53.668;9.578;2023-08-01T15:52:28;19.80;99.90
14378;DHT22;7272;53.668;9.578;2023-08-01T15:55:29;19.80;99.90
14378;DHT22;7272;53.668;9.578;2023-08-01T15:58:31;19.70;99.90
14378;DHT22;7272;53.668;9.578;2023-08-01T16:01:32;19.80;99.90
14378;DHT22;7272;53.668;9.578;2023-08-01T16:04:34;19.90;99.90
14378;DHT22;7272;53.668;9.578;2023-08-01T16:07:35;19.80;99.90
14378;DHT22;7272;53.668;9.578;2023-08-01T16:10:36;19.80;99.90
14378;DHT22;7272;53.668;9.578;2023-08-01T16:13:37;19.70;99.90
14378;DHT22;7272;53.668;9.578;2023-08-01T16:16:39;19.70;99.90
14378;DHT22;7272;53.668;9.578;2023-08-01T16:19:40;19.70;99.90
14378;DHT22;7272;53.668;9.578;2023-08-01T16:22:41;20.00;99.90
14378;DHT22;7272;53.668;9.578;2023-08-01T16:25:43;20.20;99.90
14378;DHT22;7272;53.668;9.578;2023-08-01T16:28:44;20.20;99.90
14378;DHT22;7272;53.668;9.578;2023-08-01T16:31:46;20.20;99.90
14378;DHT22;7272;53.668;9.578;2023-08-01T16:34:47;20.10;99.90
14378;DHT22;7272;53.668;9.578;2023-08-01T16:37:49;20.10;99.90
14378;DHT22;7272;53.668;9.578;2023-08-01T16:40:50;20.20;99.90
14378;DHT22;7272;53.668;9.578;2023-08-01T16:43:51;20.20;99.90
14378;DHT22;7272;53.668;9.578;2023-08-01T16:46:55;20.20;99.90
14378;DHT22;7272;53.668;9.578;2023-08-01T16:49:56;20.20;99.90
14378;DHT22;7272;53.668;9.578;2023-08-01T16:52:58;20.10;99.90
14378;DHT22;7272;53.668;9.578;2023-08-01T16:55:59;20.00;99.90
14378;DHT22;7272;53.668;9.578;2023-08-01T16:59:00;19.90;99.90
14378;DHT22;7272;53.668;9.578;2023-08-01T17:02:02;20.00;99.90
14378;DHT22;7272;53.668;9.578;2023-08-01T17:05:04;19.80;99.90
14378;DHT22;7272;53.668;9.578;2023-08-01T17:08:05;19.70;99.90
14378;DHT22;7272;53.668;9.578;2023-08-01T17:11:06;19.60;99.90
14378;DHT22;7272;53.668;9.578;2023-08-01T17:14:08;19.50;99.90
14378;DHT22;7272;53.668;9.578;2023-08-01T17:17:10;19.50;99.90
14378;DHT22;7272;53.668;9.578;2023-08-01T17:20:11;19.50;99.90
14378;DHT22;7272;53.668;9.578;2023-08-01T17:23:12;19.60;99.90
14378;DHT22;7272;53.668;9.578;2023-08-01T17:26:13;19.70;99.90
14378;DHT22;7272;53.668;9.578;2023-08-01T17:29:15;19.60;99.90
14378;DHT22;7272;53.668;9.578;2023-08-01T17:32:16;19.60;99.90
14378;DHT22;7272;53.668;9.578;2023-08-01T17:35:18;19.50;99.90
14378;DHT22;7272;53.668;9.578;2023-08-01T17:38:19;19.40;99.90
14378;DHT22;7272;53.668;9.578;2023-08-01T17:41:22;19.20;99.90
14378;DHT22;7272;53.668;9.578;2023-08-01T17:44:24;19.10;99.90
14378;DHT22;7272;53.668;9.578;2023-08-01T17:47:26;19.10;99.90
14378;DHT22;7272;53.668;9.578;2023-08-01T17:50:28;18.90;99.90
14378;DHT22;7272;53.668;9.578;2023-08-01T17:53:29;18.80;99.90
14378;DHT22;7272;53.668;9.578;2023-08-01T17:56:30;18.70;99.90
14378;DHT22;7272;53.668;9.578;2023-08-01T17:59:31;18.70;99.90
14378;DHT22;7272;53.668;9.578;2023-08-01T18:02:34;18.80;99.90
14378;DHT22;7272;53.668;9.578;2023-08-01T18:05:35;18.80;99.90
14378;DHT22;7272;53.668;9.578;2023-08-01T18:08:36;18.90;99.90
14378;DHT22;7272;53.668;9.578;2023-08-01T18:11:37;18.80;99.90
14378;DHT22;7272;53.668;9.578;2023-08-01T18:14:38;18.70;99.90
14378;DHT22;7272;53.668;9.578;2023-08-01T18:17:40;18.60;99.90
14378;DHT22;7272;53.668;9.578;2023-08-01T18:20:41;18.50;99.90
14378;DHT22;7272;53.668;9.578;2023-08-01T18:23:42;18.50;99.90
14378;DHT22;7272;53.668;9.578;2023-08-01T18:26:44;18.40;99.90
14378;DHT22;7272;53.668;9.578;2023-08-01T18:29:45;18.40;99.90
14378;DHT22;7272;53.668;9.578;2023-08-01T18:32:46;18.30;99.90
14378;DHT22;7272;53.668;9.578;2023-08-01T18:35:48;18.30;99.90
14378;DHT22;7272;53.668;9.578;2023-08-01T18:38:49;18.20;99.90
14378;DHT22;7272;53.668;9.578;2023-08-01T18:41:50;18.20;99.90
14378;DHT22;7272;53.668;9.578;2023-08-01T18:44:54;18.20;99.90
14378;DHT22;7272;53.668;9.578;2023-08-01T18:47:56;18.20;99.90
14378;DHT22;7272;53.668;9.578;2023-08-01T18:50:58;18.20;99.90
14378;DHT22;7272;53.668;9.578;2023-08-01T18:53:59;18.20;99.90
14378;DHT22;7272;53.668;9.578;2023-08-01T18:57:00;18.10;99.90
14378;DHT22;7272;53.668;9.578;2023-08-01T19:00:01;18.10;99.90
14378;DHT22;7272;53.668;9.578;2023-08-01T19:03:04;18.00;99.90
14378;DHT22;7272;53.668;9.578;2023-08-01T19:06:05;18.10;99.90
14378;DHT22;7272;53.668;9.578;2023-08-01T19:09:06;18.10;99.90
14378;DHT22;7272;53.668;9.578;2023-08-01T19:12:08;18.00;99.90
14378;DHT22;7272;53.668;9.578;2023-08-01T19:15:10;17.90;99.90
14378;DHT22;7272;53.668;9.578;2023-08-01T19:18:12;17.90;99.90
14378;DHT22;7272;53.668;9.578;2023-08-01T19:21:13;17.80;99.90
14378;DHT22;7272;53.668;9.578;2023-08-01T19:24:15;17.80;99.90
14378;DHT22;7272;53.668;9.578;2023-08-01T19:27:16;17.80;99.90